Time;durP1;ratioP1;P1;durP2;ratioP2;P2;SDS_P1;SDS_P2;PMS_P1;PMS_P2;Temp;Humidity;BMP_temperature;BMP_pressure;BME280_temperature;BME280_humidity;BME280_pressure;Samples;Min_cycle;Max_cycle;Signal;HPM_P1;HPM_P2
2023/11/24 00:00:32;;;;;;;;;;;;;;;27.89;64.65;100877.34;5021231;28;69813;-35
2023/11/24 00:03:02;;;;;;;;;;;;;;;27.96;66.58;100887.13;5038932;28;65782;-34
2023/11/24 00:05:32;;;;;;;;;;;;;;;28.03;66.24;100890.69;5036555;28;69759;-34
2023/11/24 00:08:03;;;;;;;;;;;;;;;28.07;68.28;100891.94;5039367;28;65882;-34
2023/11/24 00:10:34;;;;;;;;;;;;;;;28.13;69.53;100886.78;5036653;28;69910;-34
2023/11/24 00:13:06;;;;;;;;;;;;;;;28.13;70.65;100892.19;5037993;28;65943;-35
2023/11/24 00:15:36;;;;;;;;;;;;;;;28.07;72.75;100894.66;5028871;28;70545;-39
2023/11/24 00:18:07;;;;;;;;;;;;;;;28.05;73.67;100898.56;5038161;28;67635;-37
2023/11/24 00:20:39;;;;;;;;;;;;;;;28.09;73.98;100905.25;5038372;28;70750;-36
2023/11/24 00:23:09;;;;;;;;;;;;;;;28.14;74.12;100904.63;5036205;28;65050;-34
2023/11/24 00:25:38;;;;;;;;;;;;;;;28.11;74.75;100913.13;5035515;28;69904;-35
2023/11/24 00:28:08;;;;;;;;;;;;;;;28.12;75.07;100921.03;5019580;28;66285;-34
2023/11/24 00:30:37;;;;;;;;;;;;;;;28.11;75.43;100915.81;5019554;28;70182;-40
2023/11/24 00:33:07;;;;;;;;;;;;;;;28.10;76.21;100930.34;5018241;28;66266;-34
2023/11/24 00:35:37;;;;;;;;;;;;;;;28.11;77.46;100929.28;5038655;28;69886;-35
2023/11/24 00:38:08;;;;;;;;;;;;;;;28.10;77.29;100927.66;5039133;28;67093;-34
2023/11/24 00:40:41;;;;;;;;;;;;;;;28.08;78.02;100919.75;5035927;28;70666;-36
2023/11/24 00:43:10;;;;;;;;;;;;;;;28.07;79.01;100918.91;5034462;28;66019;-34
2023/11/24 00:45:40;;;;;;;;;;;;;;;28.11;78.98;100923.91;5034580;28;70369;-35
2023/11/24 00:48:10;;;;;;;;;;;;;;;28.16;78.16;100918.75;5015375;28;66080;-34
2023/11/24 00:50:40;;;;;;;;;;;;;;;28.22;77.45;100916.09;5045573;28;69791;-35
2023/11/24 00:53:09;;;;;;;;;;;;;;;28.24;75.45;100913.19;5032196;28;66055;-35
2023/11/24 00:55:39;;;;;;;;;;;;;;;28.28;73.40;100903.66;5013821;28;70052;-35
2023/11/24 00:58:09;;;;;;;;;;;;;;;28.32;72.36;100907.59;5036482;28;66223;-34
2023/11/24 01:00:39;;;;;;;;;;;;;;;28.35;70.96;100904.50;5030292;28;70280;-33
2023/11/24 01:03:09;;;;;;;;;;;;;;;28.39;70.35;100900.38;5036457;28;66784;-36
2023/11/24 01:05:40;;;;;;;;;;;;;;;28.43;69.26;100898.97;5034567;28;69447;-35
2023/11/24 01:08:09;;;;;;;;;;;;;;;28.46;68.85;100889.63;5036978;28;66362;-34
2023/11/24 01:10:39;;;;;;;;;;;;;;;28.48;68.54;100888.38;5011654;28;70319;-34
2023/11/24 01:13:09;;;;;;;;;;;;;;;28.51;68.54;100889.84;5031576;28;65992;-34
2023/11/24 01:15:38;;;;;;;;;;;;;;;28.54;68.22;100894.00;5038474;28;70073;-34
2023/11/24 01:18:35;;;;;;;;;;;;;;;28.57;67.90;100885.50;5031608;28;67146;-34
2023/11/24 01:21:06;;;;;;;;;;;;;;;28.60;67.45;100903.97;5032197;28;70163;-35
2023/11/24 01:23:37;;;;;;;;;;;;;;;28.62;67.65;100901.91;5034175;28;67045;-34
2023/11/24 01:26:11;;;;;;;;;;;;;;;28.62;67.00;100916.25;5021047;28;68647;-35
2023/11/24 01:28:41;;;;;;;;;;;;;;;28.63;67.06;100912.50;5019919;28;67125;-35
2023/11/24 01:31:11;;;;;;;;;;;;;;;28.66;66.90;100928.28;5019365;28;70873;-34
2023/11/24 01:33:41;;;;;;;;;;;;;;;28.68;67.05;100936.19;5032232;28;67090;-34
2023/11/24 01:36:11;;;;;;;;;;;;;;;28.70;66.84;100934.94;5020011;28;70320;-34
2023/11/24 01:38:40;;;;;;;;;;;;;;;28.72;66.67;100926.63;5037655;28;66973;-35
2023/11/24 01:41:10;;;;;;;;;;;;;;;28.74;66.60;100938.06;5015659;28;69415;-33
2023/11/24 01:43:41;;;;;;;;;;;;;;;28.76;66.43;100937.88;5033544;28;66115;-34
2023/11/24 01:46:11;;;;;;;;;;;;;;;28.76;66.55;100949.50;5022432;28;69935;-34
2023/11/24 01:48:40;;;;;;;;;;;;;;;28.77;66.00;100953.84;5044291;28;66621;-34
2023/11/24 01:51:11;;;;;;;;;;;;;;;28.79;66.39;100954.47;5036444;28;70588;-35
2023/11/24 01:53:40;;;;;;;;;;;;;;;28.81;65.78;100947.00;5029147;28;66193;-34
2023/11/24 01:56:10;;;;;;;;;;;;;;;28.82;66.22;100954.06;5020135;28;69749;-33
2023/11/24 01:58:40;;;;;;;;;;;;;;;28.84;66.23;100961.97;5051365;28;66217;-34
2023/11/24 02:01:10;;;;;;;;;;;;;;;28.85;65.66;100963.63;5037777;28;70347;-34
2023/11/24 02:03:40;;;;;;;;;;;;;;;28.87;65.93;100962.38;5002316;28;66448;-34
2023/11/24 02:06:11;;;;;;;;;;;;;;;28.89;66.03;100965.72;5019269;28;69930;-34
2023/11/24 02:08:42;;;;;;;;;;;;;;;28.90;65.54;100969.25;5043088;28;65870;-35
2023/11/24 02:11:11;;;;;;;;;;;;;;;28.92;66.01;100976.13;5041987;28;70009;-36
2023/11/24 02:13:47;;;;;;;;;;;;;;;28.94;65.49;100978.59;5035916;28;66643;-33
2023/11/24 02:16:18;;;;;;;;;;;;;;;28.95;65.39;100978.41;5050862;28;69184;-35
2023/11/24 02:18:48;;;;;;;;;;;;;;;28.98;65.37;100981.75;5018114;28;65885;-34
2023/11/24 02:21:19;;;;;;;;;;;;;;;28.99;65.33;100972.59;5034286;28;70785;-34
2023/11/24 02:23:50;;;;;;;;;;;;;;;29.00;65.33;100972.38;5028436;28;66545;-34
2023/11/24 02:26:20;;;;;;;;;;;;;;;29.03;65.22;100976.53;5032196;28;70564;-33
2023/11/24 02:28:49;;;;;;;;;;;;;;;29.03;65.20;100982.81;5030913;28;66978;-34
2023/11/24 02:31:19;;;;;;;;;;;;;;;29.07;65.41;100972.44;5014388;28;72057;-33
2023/11/24 02:33:51;;;;;;;;;;;;;;;29.07;65.21;100975.94;5046887;28;66301;-35
2023/11/24 02:36:23;;;;;;;;;;;;;;;29.10;65.31;100969.31;5017043;28;70761;-33
2023/11/24 02:38:53;;;;;;;;;;;;;;;29.12;64.83;100969.94;5036872;28;66887;-35
2023/11/24 02:41:24;;;;;;;;;;;;;;;29.13;65.24;100977.00;5032814;28;69443;-35
2023/11/24 02:43:54;;;;;;;;;;;;;;;29.15;64.83;100969.53;5032711;28;67589;-34
2023/11/24 02:46:24;;;;;;;;;;;;;;;29.16;64.83;100976.59;5018109;28;70175;-35
2023/11/24 02:48:54;;;;;;;;;;;;;;;29.17;64.73;100978.25;5023642;28;66597;-38
2023/11/24 02:51:24;;;;;;;;;;;;;;;29.20;64.77;100982.41;5034141;28;69829;-34
2023/11/24 02:53:54;;;;;;;;;;;;;;;29.23;64.67;100984.72;5009575;28;66297;-36
2023/11/24 02:56:24;;;;;;;;;;;;;;;29.23;64.67;100977.44;5018567;28;70053;-33
2023/11/24 02:58:53;;;;;;;;;;;;;;;29.25;64.63;100978.03;5035263;28;65631;-35
2023/11/24 03:01:23;;;;;;;;;;;;;;;29.27;64.92;100981.38;5018062;28;70466;-35
2023/11/24 03:03:53;;;;;;;;;;;;;;;29.28;64.76;100985.75;5028931;28;66637;-35
2023/11/24 03:06:23;;;;;;;;;;;;;;;29.30;64.56;100978.25;5036968;28;69293;-34
2023/11/24 03:08:54;;;;;;;;;;;;;;;29.32;64.55;100980.75;5031161;28;66451;-34
2023/11/24 03:11:25;;;;;;;;;;;;;;;29.33;64.48;100977.84;5040072;28;70164;-35
2023/11/24 03:13:55;;;;;;;;;;;;;;;29.35;64.68;100975.75;5056188;28;66075;-35
2023/11/24 03:16:25;;;;;;;;;;;;;;;29.38;64.85;100969.13;5022553;28;69123;-33
2023/11/24 03:18:56;;;;;;;;;;;;;;;29.39;64.80;100974.31;5021019;28;65790;-35
2023/11/24 03:21:26;;;;;;;;;;;;;;;29.29;64.99;100959.56;5020489;28;69369;-35
2023/11/24 03:23:55;;;;;;;;;;;;;;;29.44;64.58;100972.84;5007387;28;65823;-34
2023/11/24 03:26:25;;;;;;;;;;;;;;;29.46;64.62;100981.59;5040083;28;69377;-34
2023/11/24 03:28:55;;;;;;;;;;;;;;;29.48;64.80;100971.41;5041472;28;66191;-34
2023/11/24 03:31:24;;;;;;;;;;;;;;;29.49;64.72;100964.97;5036415;28;70509;-33
2023/11/24 03:33:54;;;;;;;;;;;;;;;29.40;64.64;100954.34;5018960;28;66663;-33
2023/11/24 03:36:23;;;;;;;;;;;;;;;29.54;64.62;100970.56;5023453;28;69495;-35
2023/11/24 03:38:53;;;;;;;;;;;;;;;29.55;64.63;100967.63;5040342;28;66339;-35
2023/11/24 03:41:23;;;;;;;;;;;;;;;29.57;64.72;100967.44;5041122;28;69088;-33
2023/11/24 03:43:53;;;;;;;;;;;;;;;29.59;64.21;100958.09;5023196;28;65368;-34
2023/11/24 03:46:22;;;;;;;;;;;;;;;29.61;64.52;100947.91;5041036;28;70495;-35
2023/11/24 03:48:52;;;;;;;;;;;;;;;29.64;64.58;100945.84;5041164;28;66743;-35
2023/11/24 03:51:21;;;;;;;;;;;;;;;29.66;64.64;100943.75;5041451;28;70311;-35
2023/11/24 03:53:51;;;;;;;;;;;;;;;29.68;64.20;100928.16;5040677;28;66909;-33
2023/11/24 03:56:21;;;;;;;;;;;;;;;29.69;64.09;100930.63;5041325;28;70486;-35
2023/11/24 03:58:51;;;;;;;;;;;;;;;29.72;64.66;100934.78;5032908;28;66005;-34
2023/11/24 04:01:21;;;;;;;;;;;;;;;29.74;64.22;100940.84;5041599;28;70513;-34
2023/11/24 04:03:54;;;;;;;;;;;;;;;29.75;64.26;100940.59;5040305;28;66689;-36
2023/11/24 04:06:25;;;;;;;;;;;;;;;29.77;64.50;100935.81;5051037;28;70541;-33
2023/11/24 04:08:57;;;;;;;;;;;;;;;29.78;64.32;100937.50;5011496;28;66170;-34
2023/11/24 04:11:27;;;;;;;;;;;;;;;29.80;64.44;100943.50;5032754;28;70388;-34
2023/11/24 04:13:57;;;;;;;;;;;;;;;29.83;64.20;100934.97;5040337;28;66167;-34
2023/11/24 04:16:28;;;;;;;;;;;;;;;29.84;64.41;100936.66;5040175;28;69838;-33
2023/11/24 04:18:59;;;;;;;;;;;;;;;29.88;64.24;100936.22;5037304;28;66723;-34
2023/11/24 04:21:29;;;;;;;;;;;;;;;29.89;63.93;100932.47;5040476;28;70058;-34
2023/11/24 04:23:59;;;;;;;;;;;;;;;29.92;63.77;100923.94;5022629;28;66295;-33
2023/11/24 04:26:28;;;;;;;;;;;;;;;29.93;64.16;100929.13;5038857;28;70442;-34
2023/11/24 04:28:59;;;;;;;;;;;;;;;29.94;63.81;100916.44;5036666;28;65996;-34
2023/11/24 04:31:30;;;;;;;;;;;;;;;29.97;63.94;100918.72;5027843;28;69444;-34
2023/11/24 04:34:00;;;;;;;;;;;;;;;29.99;63.56;100916.63;5039607;28;66580;-34
2023/11/24 04:36:30;;;;;;;;;;;;;;;30.00;63.58;100924.50;5040038;28;69163;-33
2023/11/24 04:39:00;;;;;;;;;;;;;;;30.02;63.85;100927.03;5041016;28;66949;-35
2023/11/24 04:41:31;;;;;;;;;;;;;;;30.03;63.87;100928.66;5036969;28;69886;-35
2023/11/24 04:44:01;;;;;;;;;;;;;;;30.04;63.68;100925.78;5039846;28;66066;-35
2023/11/24 04:46:30;;;;;;;;;;;;;;;30.08;63.35;100931.56;5039421;28;70383;-34
2023/11/24 04:49:03;;;;;;;;;;;;;;;30.08;63.48;100926.16;5038567;28;66115;-33
2023/11/24 04:51:33;;;;;;;;;;;;;;;30.10;63.26;100921.38;5026171;28;70323;-34
2023/11/24 04:54:03;;;;;;;;;;;;;;;30.12;63.49;100922.00;5039802;28;67144;-35
2023/11/24 04:56:33;;;;;;;;;;;;;;;30.14;63.20;100925.28;5038186;28;70784;-35
2023/11/24 04:59:03;;;;;;;;;;;;;;;30.15;63.38;100926.97;5039457;28;66377;-34
2023/11/24 05:01:32;;;;;;;;;;;;;;;30.16;63.31;100922.41;5039751;28;69886;-34
2023/11/24 05:04:02;;;;;;;;;;;;;;;30.18;63.59;100923.84;5038562;28;67520;-34
2023/11/24 05:06:32;;;;;;;;;;;;;;;30.21;63.28;100922.59;5040384;28;70805;-34
2023/11/24 05:09:01;;;;;;;;;;;;;;;30.22;63.02;100910.72;5040052;28;66528;-33
2023/11/24 05:11:31;;;;;;;;;;;;;;;30.23;63.13;100907.81;5025642;28;71364;-34
2023/11/24 05:14:01;;;;;;;;;;;;;;;30.25;63.10;100903.00;5039999;28;66402;-33
2023/11/24 05:16:31;;;;;;;;;;;;;;;30.26;63.44;100895.75;5039551;28;70620;-34
2023/11/24 05:19:01;;;;;;;;;;;;;;;30.27;63.05;100892.81;5038399;28;66120;-34
2023/11/24 05:21:31;;;;;;;;;;;;;;;30.30;62.95;100885.31;5033248;28;70406;-34
2023/11/24 05:24:01;;;;;;;;;;;;;;;30.31;63.55;100886.97;5038605;28;65645;-34
2023/11/24 05:26:30;;;;;;;;;;;;;;;30.32;63.11;100891.34;5019239;28;70106;-34
2023/11/24 05:29:00;;;;;;;;;;;;;;;30.33;63.22;100891.13;5035849;28;66751;-33
2023/11/24 05:31:29;;;;;;;;;;;;;;;30.35;63.47;100882.78;5037525;28;70255;-34
2023/11/24 05:33:59;;;;;;;;;;;;;;;30.36;63.41;100884.44;5037728;28;65608;-34
2023/11/24 05:36:29;;;;;;;;;;;;;;;30.37;63.10;100883.38;5037803;28;70003;-34
2023/11/24 05:38:59;;;;;;;;;;;;;;;30.38;63.07;100879.66;5036065;28;66563;-34
2023/11/24 05:41:28;;;;;;;;;;;;;;;30.39;62.99;100873.19;5037968;28;70385;-33
2023/11/24 05:43:58;;;;;;;;;;;;;;;30.39;62.97;100873.19;5039868;28;66878;-34
2023/11/24 05:46:28;;;;;;;;;;;;;;;30.41;62.87;100871.09;5027024;28;70475;-34
2023/11/24 05:48:58;;;;;;;;;;;;;;;30.41;63.30;100871.09;5036553;28;66617;-34
2023/11/24 05:51:28;;;;;;;;;;;;;;;30.42;62.83;100860.06;5039844;28;69558;-35
2023/11/24 05:53:57;;;;;;;;;;;;;;;30.42;63.36;100857.34;5039260;28;67046;-34
2023/11/24 05:56:27;;;;;;;;;;;;;;;30.43;63.23;100863.59;5037924;28;70148;-34
2023/11/24 05:58:57;;;;;;;;;;;;;;;30.44;63.29;100854.41;5040152;28;66807;-35
2023/11/24 06:01:26;;;;;;;;;;;;;;;30.45;63.36;100847.94;5021732;28;70134;-34
2023/11/24 06:03:56;;;;;;;;;;;;;;;30.44;62.95;100849.81;5021037;28;66144;-34
2023/11/24 06:06:26;;;;;;;;;;;;;;;30.46;63.23;100852.34;5039911;28;70101;-34
2023/11/24 06:08:56;;;;;;;;;;;;;;;30.46;63.39;100841.50;5039485;28;66091;-34
2023/11/24 06:11:26;;;;;;;;;;;;;;;30.47;63.27;100835.84;5037030;28;69826;-35
2023/11/24 06:13:56;;;;;;;;;;;;;;;30.47;62.81;100830.44;5038988;28;65667;-34
2023/11/24 06:16:26;;;;;;;;;;;;;;;30.49;62.89;100822.13;5039592;28;70188;-33
2023/11/24 06:18:55;;;;;;;;;;;;;;;30.49;63.30;100814.00;5038289;28;66229;-35
2023/11/24 06:21:29;;;;;;;;;;;;;;;30.51;62.80;100811.91;5038813;28;70591;-33
2023/11/24 06:23:59;;;;;;;;;;;;;;;30.51;62.82;100801.06;5039547;28;66749;-34
2023/11/24 06:26:32;;;;;;;;;;;;;;;30.53;62.95;100803.56;5038258;28;70382;-33
2023/11/24 06:29:03;;;;;;;;;;;;;;;30.54;62.95;100794.41;5039526;28;66016;-33
2023/11/24 06:31:33;;;;;;;;;;;;;;;30.54;63.17;100795.22;5037701;28;69787;-34
2023/11/24 06:34:03;;;;;;;;;;;;;;;30.55;62.90;100796.88;5038668;28;65396;-34
2023/11/24 06:36:35;;;;;;;;;;;;;;;30.57;62.65;100789.38;5039060;28;70651;-35
2023/11/24 06:39:09;;;;;;;;;;;;;;;30.57;62.54;100789.38;5037965;28;65712;-34
2023/11/24 06:41:39;;;;;;;;;;;;;;;30.58;62.80;100779.34;5040507;28;69804;-35
2023/11/24 06:44:08;;;;;;;;;;;;;;;30.58;62.56;100780.19;5042901;28;67057;-34
2023/11/24 06:46:38;;;;;;;;;;;;;;;30.59;62.74;100784.56;5041016;28;69952;-34
2023/11/24 06:49:08;;;;;;;;;;;;;;;30.60;62.57;100780.78;5042383;28;66079;-37
2023/11/24 06:51:38;;;;;;;;;;;;;;;30.60;62.41;100778.09;5042851;28;68982;-33
2023/11/24 06:54:08;;;;;;;;;;;;;;;30.60;62.41;100772.69;5041129;28;65425;-33
2023/11/24 06:56:37;;;;;;;;;;;;;;;30.61;62.66;100777.03;5035259;28;70919;-34
2023/11/24 06:59:07;;;;;;;;;;;;;;;30.62;62.66;100772.44;5039313;28;66256;-34
2023/11/24 07:01:38;;;;;;;;;;;;;;;30.62;62.21;100767.88;5030546;28;69094;-35
2023/11/24 07:04:07;;;;;;;;;;;;;;;30.62;62.34;100770.59;5041256;28;67035;-34
2023/11/24 07:06:37;;;;;;;;;;;;;;;30.63;62.55;100766.81;5042596;28;70370;-34
2023/11/24 07:09:07;;;;;;;;;;;;;;;30.63;62.73;100766.81;5040517;28;66823;-34
2023/11/24 07:11:41;;;;;;;;;;;;;;;30.64;62.46;100765.75;5043014;28;69563;-33
2023/11/24 07:14:11;;;;;;;;;;;;;;;30.65;62.21;100769.31;5042436;28;66691;-34
2023/11/24 07:16:40;;;;;;;;;;;;;;;30.64;62.21;100773.88;5037857;28;70501;-34
2023/11/24 07:19:10;;;;;;;;;;;;;;;30.65;62.17;100770.13;5041252;28;67002;-33
2023/11/24 07:21:40;;;;;;;;;;;;;;;30.66;62.27;100770.97;5037304;28;70351;-33
2023/11/24 07:24:10;;;;;;;;;;;;;;;30.65;62.36;100767.44;5039748;28;66359;-34
2023/11/24 07:26:40;;;;;;;;;;;;;;;30.66;62.07;100771.78;5037789;28;70274;-33
2023/11/24 07:29:09;;;;;;;;;;;;;;;30.67;62.05;100768.03;5040416;28;66584;-34
2023/11/24 07:31:39;;;;;;;;;;;;;;;30.68;62.18;100775.09;5036654;28;70329;-35
2023/11/24 07:34:10;;;;;;;;;;;;;;;30.68;62.08;100775.09;5042004;28;66565;-34
2023/11/24 07:36:40;;;;;;;;;;;;;;;30.68;62.25;100769.69;5041348;28;69880;-33
2023/11/24 07:39:10;;;;;;;;;;;;;;;30.69;62.24;100775.94;5039863;28;66888;-34
2023/11/24 07:41:40;;;;;;;;;;;;;;;30.69;61.96;100779.47;5041378;28;69654;-33
2023/11/24 07:44:10;;;;;;;;;;;;;;;30.69;62.26;100776.75;5041690;28;66600;-36
2023/11/24 07:46:39;;;;;;;;;;;;;;;30.69;62.26;100782.16;5039996;28;71091;-35
2023/11/24 07:49:09;;;;;;;;;;;;;;;30.70;62.22;100781.13;5023587;28;65223;-33
2023/11/24 07:51:39;;;;;;;;;;;;;;;30.70;62.28;100781.13;5041265;28;70294;-34
2023/11/24 07:54:08;;;;;;;;;;;;;;;30.71;61.98;100771.13;5039774;28;67706;-34
2023/11/24 07:56:38;;;;;;;;;;;;;;;30.71;62.43;100774.66;5040329;28;68974;-34
2023/11/24 07:59:09;;;;;;;;;;;;;;;30.70;62.11;100773.00;5036254;28;66611;-34
2023/11/24 08:01:39;;;;;;;;;;;;;;;30.71;62.27;100779.25;5037272;28;68800;-34
2023/11/24 08:04:09;;;;;;;;;;;;;;;30.72;61.94;100780.91;5034530;28;65610;-34
2023/11/24 08:06:39;;;;;;;;;;;;;;;30.71;61.96;100780.06;5038209;28;70224;-33
2023/11/24 08:09:12;;;;;;;;;;;;;;;30.71;61.89;100774.66;5039278;28;65977;-34
2023/11/24 08:11:41;;;;;;;;;;;;;;;30.72;62.00;100775.47;5038873;28;70159;-33
2023/11/24 08:14:11;;;;;;;;;;;;;;;30.71;62.13;100769.25;5041318;28;66895;-37
2023/11/24 08:16:41;;;;;;;;;;;;;;;30.72;62.10;100775.47;5039224;28;70551;-33
2023/11/24 08:19:11;;;;;;;;;;;;;;;30.73;62.33;100783.41;5039743;28;66625;-33
2023/11/24 08:21:41;;;;;;;;;;;;;;;30.72;61.76;100779.00;5040467;28;69923;-34
2023/11/24 08:24:12;;;;;;;;;;;;;;;30.72;62.11;100776.31;5040313;28;67017;-34
2023/11/24 08:26:42;;;;;;;;;;;;;;;30.73;61.83;100777.97;5040034;28;69823;-34
2023/11/24 08:29:12;;;;;;;;;;;;;;;30.73;62.08;100777.16;5038856;28;66014;-33
2023/11/24 08:31:43;;;;;;;;;;;;;;;30.73;62.03;100788.81;5038381;28;70564;-34
2023/11/24 08:34:13;;;;;;;;;;;;;;;30.73;62.04;100783.41;5036666;28;66475;-34
2023/11/24 08:36:43;;;;;;;;;;;;;;;30.73;61.88;100786.09;5037588;28;70263;-36
2023/11/24 08:39:13;;;;;;;;;;;;;;;30.73;61.86;100798.81;5038299;28;65920;-34
2023/11/24 08:41:47;;;;;;;;;;;;;;;30.73;62.04;100794.22;5038505;28;70688;-34
2023/11/24 08:44:18;;;;;;;;;;;;;;;30.73;61.79;100799.66;5034662;28;67268;-34
2023/11/24 08:46:48;;;;;;;;;;;;;;;30.73;62.04;100794.22;5037584;28;70115;-34
2023/11/24 08:49:18;;;;;;;;;;;;;;;30.73;61.92;100799.66;5039411;28;66766;-35
2023/11/24 08:51:48;;;;;;;;;;;;;;;30.73;62.07;100802.34;5034645;28;70923;-34
2023/11/24 08:54:18;;;;;;;;;;;;;;;30.73;62.07;100810.47;5029866;28;66620;-34
2023/11/24 08:56:47;;;;;;;;;;;;;;;30.73;61.89;100798.81;5037689;28;69981;-35
2023/11/24 08:59:18;;;;;;;;;;;;;;;30.72;61.91;100799.84;5017246;28;67094;-35
2023/11/24 09:01:52;;;;;;;;;;;;;;;30.72;62.09;100800.69;5037918;28;70639;-34
2023/11/24 09:04:22;;;;;;;;;;;;;;;30.71;62.47;100801.75;5036763;28;66354;-34
2023/11/24 09:06:51;;;;;;;;;;;;;;;30.70;61.88;100800.09;5033366;28;70306;-34
2023/11/24 09:09:21;;;;;;;;;;;;;;;30.70;62.32;100797.38;5037508;28;67024;-34
2023/11/24 09:11:51;;;;;;;;;;;;;;;30.70;62.00;100800.09;5038659;28;70057;-35
2023/11/24 09:14:20;;;;;;;;;;;;;;;30.69;62.33;100795.72;5035558;28;67037;-33
2023/11/24 09:16:50;;;;;;;;;;;;;;;30.64;63.08;100800.13;5038852;28;70279;-35
2023/11/24 09:19:19;;;;;;;;;;;;;;;30.41;66.52;100800.72;5039320;28;67296;-34
2023/11/24 09:21:50;;;;;;;;;;;;;;;30.26;64.81;100791.03;5030408;28;70691;-34
2023/11/24 09:24:20;;;;;;;;;;;;;;;30.11;63.58;100806.69;5039435;28;66999;-34
2023/11/24 09:26:49;;;;;;;;;;;;;;;30.05;63.28;100807.56;5031421;28;70291;-34
2023/11/24 09:29:19;;;;;;;;;;;;;;;29.98;63.04;100807.63;5035304;28;67065;-34
2023/11/24 09:31:49;;;;;;;;;;;;;;;29.95;63.10;100818.03;5038936;28;70809;-34
2023/11/24 09:34:18;;;;;;;;;;;;;;;30.11;62.88;100817.53;5038241;28;66753;-33
2023/11/24 09:36:50;;;;;;;;;;;;;;;30.22;62.57;100822.28;5036535;28;71072;-35
2023/11/24 09:39:25;;;;;;;;;;;;;;;30.30;62.20;100825.78;5039114;28;67224;-34
2023/11/24 09:41:56;;;;;;;;;;;;;;;30.36;62.06;100830.31;5038802;28;70509;-34
2023/11/24 09:44:25;;;;;;;;;;;;;;;30.41;62.01;100833.19;5038098;28;66846;-33
2023/11/24 09:46:57;;;;;;;;;;;;;;;30.43;61.99;100837.34;5038609;28;70984;-34
2023/11/24 09:49:27;;;;;;;;;;;;;;;30.48;62.50;100836.72;5038829;28;66575;-35
2023/11/24 09:51:59;;;;;;;;;;;;;;;30.50;62.32;100837.28;5038869;28;70688;-33
2023/11/24 09:54:31;;;;;;;;;;;;;;;30.52;62.50;100848.75;5038899;28;65939;-32
2023/11/24 09:57:00;;;;;;;;;;;;;;;30.55;62.28;100851.00;5036953;28;70124;-34
2023/11/24 09:59:30;;;;;;;;;;;;;;;30.58;62.57;100855.97;5021861;28;66648;-33
2023/11/24 10:02:01;;;;;;;;;;;;;;;30.58;62.76;100860.56;5018811;28;69806;-34
2023/11/24 10:04:34;;;;;;;;;;;;;;;30.60;62.55;100863.91;5019237;28;66199;-35
2023/11/24 10:07:06;;;;;;;;;;;;;;;30.60;62.84;100864.72;5053714;28;69164;-33
2023/11/24 10:09:37;;;;;;;;;;;;;;;30.62;62.52;100878.88;5030465;28;66218;-35
2023/11/24 10:12:06;;;;;;;;;;;;;;;30.62;63.07;100873.47;5011784;28;69824;-35
2023/11/24 10:14:43;;;;;;;;;;;;;;;30.57;65.04;100875.16;5036057;28;66805;-37
2023/11/24 10:17:15;;;;;;;;;;;;;;;30.39;66.71;100884.00;5019492;28;70293;-36
2023/11/24 10:19:45;;;;;;;;;;;;;;;30.28;67.10;100883.66;5038689;28;67095;-37
2023/11/24 10:22:15;;;;;;;;;;;;;;;30.06;67.71;100857.91;5038337;28;70950;-34
2023/11/24 10:24:47;;;;;;;;;;;;;;;30.22;67.76;100887.22;5039757;28;66401;-35
2023/11/24 10:27:21;;;;;;;;;;;;;;;30.20;68.53;100885.72;5040263;28;69140;-35
2023/11/24 10:29:51;;;;;;;;;;;;;;;30.19;68.38;100884.91;5030902;28;68368;-35
2023/11/24 10:32:21;;;;;;;;;;;;;;;30.17;68.31;100883.47;5038709;28;70523;-34
2023/11/24 10:34:51;;;;;;;;;;;;;;;30.18;68.53;100894.09;5031651;28;66767;-34
2023/11/24 10:37:24;;;;;;;;;;;;;;;30.16;67.95;100896.16;5039737;28;70335;-34
2023/11/24 10:39:58;;;;;;;;;;;;;;;30.19;67.94;100901.13;5038924;28;65545;-35
2023/11/24 10:42:31;;;;;;;;;;;;;;;30.17;67.93;100905.97;5028211;28;70679;-33
2023/11/24 10:45:05;;;;;;;;;;;;;;;30.15;67.96;100916.16;5040649;28;66877;-37
2023/11/24 10:47:39;;;;;;;;;;;;;;;30.16;68.69;100911.56;5040552;28;70041;-34
2023/11/24 10:50:10;;;;;;;;;;;;;;;30.14;68.70;100909.06;5040139;28;66573;-35
2023/11/24 10:52:47;;;;;;;;;;;;;;;30.15;68.08;100913.44;5036741;28;70316;-35
2023/11/24 10:55:17;;;;;;;;;;;;;;;30.14;68.47;100919.88;5040024;28;66602;-35
2023/11/24 10:57:47;;;;;;;;;;;;;;;30.14;68.73;100916.34;5039719;28;70243;-36
2023/11/24 11:00:20;;;;;;;;;;;;;;;30.15;68.22;100926.97;5038628;28;66445;-34
2023/11/24 11:02:52;;;;;;;;;;;;;;;30.13;68.48;100934.47;5040190;28;70616;-35
2023/11/24 11:05:41;;;;;;;;;;;;;;;30.13;68.47;100923.66;5040293;28;66724;-36
2023/11/24 11:08:18;;;;;;;;;;;;;;;30.13;68.21;100930.94;5039666;28;70373;-36
2023/11/24 11:11:06;;;;;;;;;;;;;;;30.11;65.85;100936.56;5038666;28;66870;-36
2023/11/24 11:13:36;;;;;;;;;;;;;;;30.01;65.03;100938.91;5040019;28;70681;-35
2023/11/24 11:16:08;;;;;;;;;;;;;;;29.96;62.77;100941.41;5038890;28;65978;-34
2023/11/24 11:18:38;;;;;;;;;;;;;;;29.89;61.88;100938.69;5039375;28;70312;-37
2023/11/24 11:21:39;;;;;;;;;;;;;;;29.84;61.01;100935.81;5040179;28;67419;-35
2023/11/24 11:24:22;;;;;;;;;;;;;;;29.81;60.40;100942.50;5038369;28;70138;-36
2023/11/24 11:26:52;;;;;;;;;;;;;;;29.79;61.74;100949.97;5040234;28;66835;-36
2023/11/24 11:29:26;;;;;;;;;;;;;;;29.83;63.70;100945.78;5043642;28;68930;-35
2023/11/24 11:31:56;;;;;;;;;;;;;;;29.87;64.91;100943.50;5031015;28;66550;-36
2023/11/24 11:34:30;;;;;;;;;;;;;;;29.90;66.14;100956.59;5042288;28;70493;-35
2023/11/24 11:37:11;;;;;;;;;;;;;;;30.03;64.67;100958.44;5031506;28;66805;-34
2023/11/24 11:40:04;;;;;;;;;;;;;;;30.12;64.12;100957.16;5042614;28;69847;-36
2023/11/24 11:42:52;;;;;;;;;;;;;;;30.20;63.91;100966.91;5029104;28;66705;-34
2023/11/24 11:45:29;;;;;;;;;;;;;;;30.24;64.13;100963.59;5040627;28;68896;-34
2023/11/24 11:48:09;;;;;;;;;;;;;;;30.30;63.82;100969.19;5043549;28;66922;-35
2023/11/24 11:50:45;;;;;;;;;;;;;;;30.33;63.69;100974.19;5042739;28;69871;-35
2023/11/24 11:53:16;;;;;;;;;;;;;;;30.36;64.12;100976.47;5035653;28;66087;-39
2023/11/24 11:55:47;;;;;;;;;;;;;;;30.37;64.14;100970.84;5042389;28;70373;-35
2023/11/24 11:58:18;;;;;;;;;;;;;;;30.41;63.90;100973.94;5042814;28;65445;-35
2023/11/24 12:00:48;;;;;;;;;;;;;;;30.42;63.84;100981.00;5042327;28;71313;-36
2023/11/24 12:03:18;;;;;;;;;;;;;;;30.43;63.85;100979.97;5041700;28;66607;-35
2023/11/24 12:05:51;;;;;;;;;;;;;;;30.44;63.71;100978.91;5042999;28;70504;-34
2023/11/24 12:08:27;;;;;;;;;;;;;;;30.45;63.46;100985.97;5058055;28;67440;-35
2023/11/24 12:10:57;;;;;;;;;;;;;;;30.46;63.77;100993.06;5042684;28;69707;-34
2023/11/24 12:13:26;;;;;;;;;;;;;;;30.46;63.63;100993.06;5043064;28;66481;-35
2023/11/24 12:15:59;;;;;;;;;;;;;;;30.46;63.28;100993.06;5042323;28;68946;-34
2023/11/24 12:18:29;;;;;;;;;;;;;;;30.46;63.70;100998.50;5042124;28;66959;-35
2023/11/24 12:20:59;;;;;;;;;;;;;;;30.46;63.33;101001.19;5043457;28;69366;-34
2023/11/24 12:23:29;;;;;;;;;;;;;;;30.45;63.21;100997.66;5042366;28;66125;-34
2023/11/24 12:26:00;;;;;;;;;;;;;;;30.46;63.51;101004.72;5042003;28;70370;-34
2023/11/24 12:28:31;;;;;;;;;;;;;;;30.46;63.31;100993.06;5043003;28;65822;-34
2023/11/24 12:31:02;;;;;;;;;;;;;;;30.45;63.15;100992.25;5030495;28;70084;-35
2023/11/24 12:33:33;;;;;;;;;;;;;;;30.45;63.35;100992.25;5042192;28;66057;-34
2023/11/24 12:36:04;;;;;;;;;;;;;;;30.46;63.59;101001.19;5042276;28;70275;-34
2023/11/24 12:38:34;;;;;;;;;;;;;;;30.45;63.26;100991.41;5041267;28;66699;-34
2023/11/24 12:41:05;;;;;;;;;;;;;;;30.46;63.20;100987.66;5042110;28;70482;-34
2023/11/24 12:43:37;;;;;;;;;;;;;;;30.44;63.03;100993.28;5043243;28;68022;-34
2023/11/24 12:46:18;;;;;;;;;;;;;;;30.44;62.75;100995.16;5029029;28;70256;-34
2023/11/24 12:48:48;;;;;;;;;;;;;;;30.26;63.39;100999.41;5038053;28;67059;-34
2023/11/24 12:51:17;;;;;;;;;;;;;;;30.14;64.60;101001.06;5042652;28;70009;-36
2023/11/24 12:53:48;;;;;;;;;;;;;;;30.05;64.81;100996.91;5041831;28;67356;-35